sensor_id;sensor_type;location;lat;lon;timestamp;temperature;humidity
61351;DHT22;47119;49.130;9.218;2022-07-23T00:01:26;22.10;71.20
61351;DHT22;47119;49.130;9.218;2022-07-23T00:03:55;22.11;71.34
61351;DHT22;47119;49.130;9.218;2022-07-23T00:06:24;22.10;71.06
61351;DHT22;47119;49.130;9.218;2022-07-23T00:08:51;22.13;71.09
61351;DHT22;47119;49.130;9.218;2022-07-23T00:11:19;22.10;71.27
61351;DHT22;47119;49.130;9.218;2022-07-23T00:13:47;22.08;71.36
61351;DHT22;47119;49.130;9.218;2022-07-23T00:16:15;22.08;71.31
61351;DHT22;47119;49.130;9.218;2022-07-23T00:18:42;22.11;71.14
61351;DHT22;47119;49.130;9.218;2022-07-23T00:21:10;22.10;71.23
61351;DHT22;47119;49.130;9.218;2022-07-23T00:23:49;22.13;70.99
61351;DHT22;47119;49.130;9.218;2022-07-23T00:26:19;22.11;71.00
61351;DHT22;47119;49.130;9.218;2022-07-23T00:28:48;22.15;71.00
61351;DHT22;47119;49.130;9.218;2022-07-23T00:31:18;22.11;71.18
61351;DHT22;47119;49.130;9.218;2022-07-23T00:33:47;22.10;71.09
61351;DHT22;47119;49.130;9.218;2022-07-23T00:36:32;22.13;71.03
61351;DHT22;47119;49.130;9.218;2022-07-23T00:39:02;22.13;71.01
61351;DHT22;47119;49.130;9.218;2022-07-23T00:41:31;22.15;70.81
61351;DHT22;47119;49.130;9.218;2022-07-23T00:44:14;22.14;70.81
61351;DHT22;47119;49.130;9.218;2022-07-23T00:46:45;22.18;70.72
61351;DHT22;47119;49.130;9.218;2022-07-23T00:49:15;22.15;70.86
61351;DHT22;47119;49.130;9.218;2022-07-23T00:51:46;22.14;70.72
61351;DHT22;47119;49.130;9.218;2022-07-23T00:54:14;22.15;70.74
61351;DHT22;47119;49.130;9.218;2022-07-23T00:56:43;22.15;70.79
61351;DHT22;47119;49.130;9.218;2022-07-23T00:59:11;22.15;70.72
61351;DHT22;47119;49.130;9.218;2022-07-23T01:01:39;22.14;70.89
61351;DHT22;47119;49.130;9.218;2022-07-23T01:04:06;22.14;70.84
61351;DHT22;47119;49.130;9.218;2022-07-23T01:06:37;22.14;70.84
61351;DHT22;47119;49.130;9.218;2022-07-23T01:09:07;22.14;70.75
61351;DHT22;47119;49.130;9.218;2022-07-23T01:11:35;22.17;70.68
61351;DHT22;47119;49.130;9.218;2022-07-23T01:14:11;22.15;70.68
61351;DHT22;47119;49.130;9.218;2022-07-23T01:16:40;22.14;70.91
61351;DHT22;47119;49.130;9.218;2022-07-23T01:19:09;22.11;71.02
61351;DHT22;47119;49.130;9.218;2022-07-23T01:21:38;22.14;71.12
61351;DHT22;47119;49.130;9.218;2022-07-23T01:24:09;22.15;70.85
61351;DHT22;47119;49.130;9.218;2022-07-23T01:26:45;22.14;70.77
61351;DHT22;47119;49.130;9.218;2022-07-23T01:29:14;22.15;70.72
61351;DHT22;47119;49.130;9.218;2022-07-23T01:31:43;22.15;70.76
61351;DHT22;47119;49.130;9.218;2022-07-23T01:34:12;22.13;70.73
61351;DHT22;47119;49.130;9.218;2022-07-23T01:36:40;22.17;70.81
61351;DHT22;47119;49.130;9.218;2022-07-23T01:39:10;22.13;70.77
61351;DHT22;47119;49.130;9.218;2022-07-23T01:41:37;22.14;70.80
61351;DHT22;47119;49.130;9.218;2022-07-23T01:44:04;22.15;70.77
61351;DHT22;47119;49.130;9.218;2022-07-23T01:46:32;22.15;70.64
61351;DHT22;47119;49.130;9.218;2022-07-23T01:48:59;22.13;70.79
61351;DHT22;47119;49.130;9.218;2022-07-23T01:51:44;22.14;70.60
61351;DHT22;47119;49.130;9.218;2022-07-23T05:53:11;22.14;70.38
61351;DHT22;47119;49.130;9.218;2022-07-23T05:55:52;22.13;70.57
61351;DHT22;47119;49.130;9.218;2022-07-23T05:58:20;22.01;70.42
61351;DHT22;47119;49.130;9.218;2022-07-23T06:00:47;22.13;70.41
61351;DHT22;47119;49.130;9.218;2022-07-23T06:03:17;22.04;71.34
61351;DHT22;47119;49.130;9.218;2022-07-23T06:05:45;22.04;72.14
61351;DHT22;47119;49.130;9.218;2022-07-23T06:08:15;22.01;74.51
61351;DHT22;47119;49.130;9.218;2022-07-23T06:10:42;22.03;74.54
61351;DHT22;47119;49.130;9.218;2022-07-23T06:13:09;21.96;75.83
61351;DHT22;47119;49.130;9.218;2022-07-23T06:15:36;21.96;75.95
61351;DHT22;47119;49.130;9.218;2022-07-23T06:18:04;21.96;76.52
61351;DHT22;47119;49.130;9.218;2022-07-23T06:20:31;21.98;77.22
61351;DHT22;47119;49.130;9.218;2022-07-23T06:23:00;21.98;77.38
61351;DHT22;47119;49.130;9.218;2022-07-23T06:25:33;21.97;77.47
61351;DHT22;47119;49.130;9.218;2022-07-23T06:28:00;21.96;77.31
61351;DHT22;47119;49.130;9.218;2022-07-23T06:30:30;21.94;77.48
61351;DHT22;47119;49.130;9.218;2022-07-23T06:32:59;21.98;77.20
61351;DHT22;47119;49.130;9.218;2022-07-23T06:35:30;21.92;77.24
61351;DHT22;47119;49.130;9.218;2022-07-23T06:37:59;21.92;77.15
61351;DHT22;47119;49.130;9.218;2022-07-23T06:40:26;21.96;77.10
61351;DHT22;47119;49.130;9.218;2022-07-23T06:42:59;21.97;77.28
61351;DHT22;47119;49.130;9.218;2022-07-23T06:45:27;22.00;77.14
61351;DHT22;47119;49.130;9.218;2022-07-23T06:47:54;22.00;76.97
61351;DHT22;47119;49.130;9.218;2022-07-23T06:50:21;22.00;77.21
61351;DHT22;47119;49.130;9.218;2022-07-23T06:52:48;22.03;77.49
61351;DHT22;47119;49.130;9.218;2022-07-23T06:55:15;22.04;77.83
61351;DHT22;47119;49.130;9.218;2022-07-23T06:57:44;22.08;76.29
61351;DHT22;47119;49.130;9.218;2022-07-23T07:00:15;22.01;78.34
61351;DHT22;47119;49.130;9.218;2022-07-23T07:02:45;22.01;79.23
61351;DHT22;47119;49.130;9.218;2022-07-23T07:05:12;22.04;79.01
61351;DHT22;47119;49.130;9.218;2022-07-23T07:07:41;21.98;80.33
61351;DHT22;47119;49.130;9.218;2022-07-23T07:10:08;21.94;80.63
61351;DHT22;47119;49.130;9.218;2022-07-23T07:12:36;21.96;80.74
61351;DHT22;47119;49.130;9.218;2022-07-23T07:15:03;21.90;80.79
61351;DHT22;47119;49.130;9.218;2022-07-23T07:17:35;21.94;81.08
61351;DHT22;47119;49.130;9.218;2022-07-23T07:20:03;21.92;81.19
61351;DHT22;47119;49.130;9.218;2022-07-23T07:22:31;21.92;81.08
61351;DHT22;47119;49.130;9.218;2022-07-23T07:24:58;21.92;81.47
61351;DHT22;47119;49.130;9.218;2022-07-23T07:27:25;21.92;81.17
61351;DHT22;47119;49.130;9.218;2022-07-23T07:29:52;21.93;81.53
61351;DHT22;47119;49.130;9.218;2022-07-23T07:32:19;21.94;81.65
61351;DHT22;47119;49.130;9.218;2022-07-23T07:34:48;21.96;81.52
61351;DHT22;47119;49.130;9.218;2022-07-23T07:37:17;21.93;81.28
61351;DHT22;47119;49.130;9.218;2022-07-23T07:39:44;21.93;81.23
61351;DHT22;47119;49.130;9.218;2022-07-23T07:42:11;21.93;81.11
61351;DHT22;47119;49.130;9.218;2022-07-23T07:44:40;21.92;81.08
61351;DHT22;47119;49.130;9.218;2022-07-23T07:47:07;21.92;81.16
61351;DHT22;47119;49.130;9.218;2022-07-23T07:49:34;21.90;81.10
61351;DHT22;47119;49.130;9.218;2022-07-23T07:52:05;21.92;81.73
61351;DHT22;47119;49.130;9.218;2022-07-23T07:54:35;21.92;81.50
61351;DHT22;47119;49.130;9.218;2022-07-23T07:57:08;21.94;81.26
61351;DHT22;47119;49.130;9.218;2022-07-23T07:59:39;21.92;80.61
61351;DHT22;47119;49.130;9.218;2022-07-23T08:02:09;21.94;81.56
61351;DHT22;47119;49.130;9.218;2022-07-23T08:04:38;21.98;81.11
61351;DHT22;47119;49.130;9.218;2022-07-23T08:07:06;21.93;80.99
61351;DHT22;47119;49.130;9.218;2022-07-23T08:09:37;21.93;80.72
61351;DHT22;47119;49.130;9.218;2022-07-23T08:12:04;21.96;80.59
61351;DHT22;47119;49.130;9.218;2022-07-23T08:14:39;21.93;80.48
61351;DHT22;47119;49.130;9.218;2022-07-23T08:17:08;21.97;80.25
61351;DHT22;47119;49.130;9.218;2022-07-23T08:19:37;21.98;80.94
61351;DHT22;47119;49.130;9.218;2022-07-23T08:22:05;21.98;80.79
61351;DHT22;47119;49.130;9.218;2022-07-23T08:24:36;21.96;81.19
61351;DHT22;47119;49.130;9.218;2022-07-23T08:27:03;21.90;80.93
61351;DHT22;47119;49.130;9.218;2022-07-23T08:29:32;21.90;81.15
61351;DHT22;47119;49.130;9.218;2022-07-23T08:32:02;21.93;80.85
61351;DHT22;47119;49.130;9.218;2022-07-23T08:34:36;21.94;81.16
61351;DHT22;47119;49.130;9.218;2022-07-23T08:37:03;21.96;81.60
61351;DHT22;47119;49.130;9.218;2022-07-23T08:39:36;22.00;81.23
61351;DHT22;47119;49.130;9.218;2022-07-23T08:42:06;21.96;81.21
61351;DHT22;47119;49.130;9.218;2022-07-23T08:44:35;21.93;81.33
61351;DHT22;47119;49.130;9.218;2022-07-23T08:47:02;21.96;80.78
61351;DHT22;47119;49.130;9.218;2022-07-23T08:49:30;21.94;81.31
61351;DHT22;47119;49.130;9.218;2022-07-23T08:51:57;21.97;81.22
61351;DHT22;47119;49.130;9.218;2022-07-23T08:54:24;21.96;81.03
61351;DHT22;47119;49.130;9.218;2022-07-23T08:56:56;21.93;81.40
61351;DHT22;47119;49.130;9.218;2022-07-23T08:59:28;21.97;81.27
61351;DHT22;47119;49.130;9.218;2022-07-23T09:01:57;21.97;80.18
61351;DHT22;47119;49.130;9.218;2022-07-23T09:04:26;21.97;80.48
61351;DHT22;47119;49.130;9.218;2022-07-23T09:06:53;22.00;80.20
61351;DHT22;47119;49.130;9.218;2022-07-23T09:09:23;22.00;80.83
61351;DHT22;47119;49.130;9.218;2022-07-23T09:12:04;21.97;80.04
61351;DHT22;47119;49.130;9.218;2022-07-23T09:14:37;21.96;81.29
61351;DHT22;47119;49.130;9.218;2022-07-23T09:17:14;22.03;80.67
61351;DHT22;47119;49.130;9.218;2022-07-23T09:19:48;21.98;80.44
61351;DHT22;47119;49.130;9.218;2022-07-23T09:22:17;21.96;80.52
61351;DHT22;47119;49.130;9.218;2022-07-23T09:25:05;21.98;81.13
61351;DHT22;47119;49.130;9.218;2022-07-23T09:27:49;22.03;80.74
61351;DHT22;47119;49.130;9.218;2022-07-23T09:30:20;22.01;80.70
61351;DHT22;47119;49.130;9.218;2022-07-23T09:33:07;21.98;81.28
61351;DHT22;47119;49.130;9.218;2022-07-23T09:35:50;21.98;80.52
61351;DHT22;47119;49.130;9.218;2022-07-23T09:38:24;22.01;79.92
61351;DHT22;47119;49.130;9.218;2022-07-23T09:41:06;22.01;80.45
61351;DHT22;47119;49.130;9.218;2022-07-23T09:43:38;21.98;80.11
61351;DHT22;47119;49.130;9.218;2022-07-23T09:46:18;22.03;82.07
61351;DHT22;47119;49.130;9.218;2022-07-23T09:48:52;22.05;79.15
61351;DHT22;47119;49.130;9.218;2022-07-23T09:51:24;22.04;77.20
61351;DHT22;47119;49.130;9.218;2022-07-23T09:53:59;22.00;80.47
61351;DHT22;47119;49.130;9.218;2022-07-23T09:56:27;21.97;79.62
61351;DHT22;47119;49.130;9.218;2022-07-23T09:59:14;21.97;78.23
61351;DHT22;47119;49.130;9.218;2022-07-23T10:02:13;22.01;78.88
61351;DHT22;47119;49.130;9.218;2022-07-23T10:05:11;22.00;79.02
61351;DHT22;47119;49.130;9.218;2022-07-23T10:08:03;21.98;78.76
61351;DHT22;47119;49.130;9.218;2022-07-23T10:11:24;22.01;78.24
61351;DHT22;47119;49.130;9.218;2022-07-23T10:14:23;22.03;78.30
61351;DHT22;47119;49.130;9.218;2022-07-23T10:16:57;22.04;77.50
61351;DHT22;47119;49.130;9.218;2022-07-23T10:19:35;21.96;77.66
61351;DHT22;47119;49.130;9.218;2022-07-23T10:22:21;21.93;78.04
61351;DHT22;47119;49.130;9.218;2022-07-23T10:24:59;21.97;78.68
61351;DHT22;47119;49.130;9.218;2022-07-23T10:28:02;22.01;77.44
61351;DHT22;47119;49.130;9.218;2022-07-23T10:30:43;22.03;77.29
61351;DHT22;47119;49.130;9.218;2022-07-23T10:33:26;22.05;77.23
61351;DHT22;47119;49.130;9.218;2022-07-23T10:36:08;21.98;77.87
61351;DHT22;47119;49.130;9.218;2022-07-23T10:38:49;22.01;79.17
61351;DHT22;47119;49.130;9.218;2022-07-23T10:41:31;21.98;76.77
61351;DHT22;47119;49.130;9.218;2022-07-23T10:44:09;22.00;77.49
61351;DHT22;47119;49.130;9.218;2022-07-23T10:47:00;22.03;76.49
61351;DHT22;47119;49.130;9.218;2022-07-23T10:49:50;22.01;76.46
61351;DHT22;47119;49.130;9.218;2022-07-23T10:52:20;21.96;76.52
61351;DHT22;47119;49.130;9.218;2022-07-23T10:55:00;22.00;76.53
61351;DHT22;47119;49.130;9.218;2022-07-23T10:58:05;22.00;76.16
61351;DHT22;47119;49.130;9.218;2022-07-23T11:00:35;22.01;76.03
61351;DHT22;47119;49.130;9.218;2022-07-23T11:03:27;22.04;75.90
61351;DHT22;47119;49.130;9.218;2022-07-23T11:06:02;22.01;76.33
61351;DHT22;47119;49.130;9.218;2022-07-23T11:08:30;22.01;75.95
61351;DHT22;47119;49.130;9.218;2022-07-23T11:11:10;21.98;76.30
61351;DHT22;47119;49.130;9.218;2022-07-23T11:13:44;22.01;75.79
61351;DHT22;47119;49.130;9.218;2022-07-23T11:16:24;22.01;76.41
61351;DHT22;47119;49.130;9.218;2022-07-23T11:19:04;22.05;76.06
61351;DHT22;47119;49.130;9.218;2022-07-23T11:21:58;22.05;75.55
61351;DHT22;47119;49.130;9.218;2022-07-23T11:24:25;21.97;75.67
61351;DHT22;47119;49.130;9.218;2022-07-23T11:27:00;22.07;75.60
61351;DHT22;47119;49.130;9.218;2022-07-23T11:29:47;22.13;75.82
61351;DHT22;47119;49.130;9.218;2022-07-23T11:32:27;22.13;75.68
61351;DHT22;47119;49.130;9.218;2022-07-23T11:34:59;22.10;75.74
61351;DHT22;47119;49.130;9.218;2022-07-23T11:37:35;22.11;75.52
61351;DHT22;47119;49.130;9.218;2022-07-23T11:40:08;22.13;75.37
61351;DHT22;47119;49.130;9.218;2022-07-23T11:42:38;22.10;75.13
61351;DHT22;47119;49.130;9.218;2022-07-23T11:45:08;22.00;75.54
61351;DHT22;47119;49.130;9.218;2022-07-23T11:47:37;22.07;75.37
61351;DHT22;47119;49.130;9.218;2022-07-23T11:50:07;22.10;75.40
61351;DHT22;47119;49.130;9.218;2022-07-23T11:52:36;22.14;75.32
61351;DHT22;47119;49.130;9.218;2022-07-23T11:55:09;22.17;75.21
61351;DHT22;47119;49.130;9.218;2022-07-23T11:57:40;22.14;75.09
61351;DHT22;47119;49.130;9.218;2022-07-23T12:00:10;22.15;74.85
61351;DHT22;47119;49.130;9.218;2022-07-23T12:02:42;22.18;74.86
61351;DHT22;47119;49.130;9.218;2022-07-23T12:05:13;22.20;74.65
61351;DHT22;47119;49.130;9.218;2022-07-23T12:07:44;22.01;74.83
61351;DHT22;47119;49.130;9.218;2022-07-23T12:10:17;22.11;73.79
61351;DHT22;47119;49.130;9.218;2022-07-23T12:12:48;22.04;74.66
61351;DHT22;47119;49.130;9.218;2022-07-23T12:15:19;22.05;73.80
61351;DHT22;47119;49.130;9.218;2022-07-23T12:17:50;22.14;73.68
61351;DHT22;47119;49.130;9.218;2022-07-23T12:20:23;22.14;72.57
61351;DHT22;47119;49.130;9.218;2022-07-23T12:22:56;22.14;73.92
61351;DHT22;47119;49.130;9.218;2022-07-23T12:25:26;22.14;73.91
61351;DHT22;47119;49.130;9.218;2022-07-23T12:28:04;22.15;73.54
61351;DHT22;47119;49.130;9.218;2022-07-23T12:30:38;22.00;74.20
61351;DHT22;47119;49.130;9.218;2022-07-23T12:33:24;22.05;73.72
61351;DHT22;47119;49.130;9.218;2022-07-23T12:35:57;22.14;73.08
61351;DHT22;47119;49.130;9.218;2022-07-23T12:39:14;22.18;72.48
61351;DHT22;47119;49.130;9.218;2022-07-23T12:42:43;22.05;72.84
61351;DHT22;47119;49.130;9.218;2022-07-23T12:45:43;22.15;73.28
61351;DHT22;47119;49.130;9.218;2022-07-23T12:48:22;22.13;73.37
61351;DHT22;47119;49.130;9.218;2022-07-23T12:51:02;22.10;73.22
61351;DHT22;47119;49.130;9.218;2022-07-23T12:53:33;22.15;72.98
61351;DHT22;47119;49.130;9.218;2022-07-23T12:56:09;22.21;72.92
61351;DHT22;47119;49.130;9.218;2022-07-23T12:59:04;22.14;73.06
61351;DHT22;47119;49.130;9.218;2022-07-23T13:01:39;22.21;72.42
61351;DHT22;47119;49.130;9.218;2022-07-23T13:04:08;22.21;72.78
61351;DHT22;47119;49.130;9.218;2022-07-23T13:06:43;22.20;73.02
61351;DHT22;47119;49.130;9.218;2022-07-23T13:09:15;22.15;73.03
61351;DHT22;47119;49.130;9.218;2022-07-23T13:11:49;22.10;73.00
61351;DHT22;47119;49.130;9.218;2022-07-23T13:14:26;22.18;72.67
61351;DHT22;47119;49.130;9.218;2022-07-23T13:17:33;22.25;72.63
61351;DHT22;47119;49.130;9.218;2022-07-23T13:20:39;22.22;72.67
61351;DHT22;47119;49.130;9.218;2022-07-23T13:23:43;22.17;72.77
61351;DHT22;47119;49.130;9.218;2022-07-23T13:26:41;22.20;72.62
61351;DHT22;47119;49.130;9.218;2022-07-23T13:29:54;22.18;72.16
61351;DHT22;47119;49.130;9.218;2022-07-23T13:32:42;22.18;72.82
61351;DHT22;47119;49.130;9.218;2022-07-23T13:35:10;22.21;72.69
61351;DHT22;47119;49.130;9.218;2022-07-23T13:37:37;22.15;72.58
61351;DHT22;47119;49.130;9.218;2022-07-23T13:40:07;22.21;72.36
61351;DHT22;47119;49.130;9.218;2022-07-23T13:42:36;22.24;72.08
61351;DHT22;47119;49.130;9.218;2022-07-23T13:45:05;22.22;72.18
61351;DHT22;47119;49.130;9.218;2022-07-23T13:47:33;22.25;71.37
61351;DHT22;47119;49.130;9.218;2022-07-23T13:50:01;22.27;72.09
61351;DHT22;47119;49.130;9.218;2022-07-23T13:52:30;22.22;72.57
61351;DHT22;47119;49.130;9.218;2022-07-23T13:55:04;22.25;71.44
61351;DHT22;47119;49.130;9.218;2022-07-23T13:57:34;22.25;72.47
61351;DHT22;47119;49.130;9.218;2022-07-23T14:00:04;22.15;72.05
61351;DHT22;47119;49.130;9.218;2022-07-23T14:02:37;22.24;72.06
61351;DHT22;47119;49.130;9.218;2022-07-23T14:05:09;22.24;71.83
61351;DHT22;47119;49.130;9.218;2022-07-23T14:07:39;22.30;72.10
61351;DHT22;47119;49.130;9.218;2022-07-23T14:10:10;22.25;71.62
61351;DHT22;47119;49.130;9.218;2022-07-23T14:12:42;22.24;72.38
61351;DHT22;47119;49.130;9.218;2022-07-23T14:15:09;22.21;72.26
61351;DHT22;47119;49.130;9.218;2022-07-23T14:17:37;22.27;71.77
61351;DHT22;47119;49.130;9.218;2022-07-23T14:20:07;22.22;72.19
61351;DHT22;47119;49.130;9.218;2022-07-23T14:22:35;22.25;71.67
61351;DHT22;47119;49.130;9.218;2022-07-23T14:25:05;22.22;71.88
61351;DHT22;47119;49.130;9.218;2022-07-23T14:27:38;22.21;72.23
61351;DHT22;47119;49.130;9.218;2022-07-23T14:30:09;22.13;72.41
61351;DHT22;47119;49.130;9.218;2022-07-23T14:32:37;22.18;72.17
61351;DHT22;47119;49.130;9.218;2022-07-23T14:35:07;22.20;72.10
61351;DHT22;47119;49.130;9.218;2022-07-23T14:37:35;22.20;72.23
61351;DHT22;47119;49.130;9.218;2022-07-23T14:40:05;22.18;72.23
61351;DHT22;47119;49.130;9.218;2022-07-23T14:42:32;22.15;72.22
61351;DHT22;47119;49.130;9.218;2022-07-23T14:45:01;22.24;72.08
61351;DHT22;47119;49.130;9.218;2022-07-23T14:47:34;22.28;71.56
61351;DHT22;47119;49.130;9.218;2022-07-23T14:50:05;22.17;72.22
61351;DHT22;47119;49.130;9.218;2022-07-23T14:52:34;22.24;71.67
61351;DHT22;47119;49.130;9.218;2022-07-23T14:55:05;22.07;72.24
61351;DHT22;47119;49.130;9.218;2022-07-23T14:57:35;22.17;71.97
61351;DHT22;47119;49.130;9.218;2022-07-23T15:00:07;22.13;72.21
61351;DHT22;47119;49.130;9.218;2022-07-23T15:02:38;22.22;71.42
61351;DHT22;47119;49.130;9.218;2022-07-23T15:05:06;22.15;71.83
61351;DHT22;47119;49.130;9.218;2022-07-23T15:07:36;22.13;71.96
61351;DHT22;47119;49.130;9.218;2022-07-23T15:10:04;22.20;71.60
61351;DHT22;47119;49.130;9.218;2022-07-23T15:12:35;22.08;71.85
61351;DHT22;47119;49.130;9.218;2022-07-23T15:15:06;22.18;70.99
61351;DHT22;47119;49.130;9.218;2022-07-23T15:17:33;22.14;71.66
61351;DHT22;47119;49.130;9.218;2022-07-23T15:20:05;22.18;70.96
61351;DHT22;47119;49.130;9.218;2022-07-23T15:22:33;22.27;71.10
61351;DHT22;47119;49.130;9.218;2022-07-23T15:25:00;22.31;70.12
61351;DHT22;47119;49.130;9.218;2022-07-23T15:27:32;22.37;70.05
61351;DHT22;47119;49.130;9.218;2022-07-23T15:29:59;22.28;71.18
61351;DHT22;47119;49.130;9.218;2022-07-23T15:32:32;22.31;70.94
61351;DHT22;47119;49.130;9.218;2022-07-23T15:34:59;22.34;71.00
61351;DHT22;47119;49.130;9.218;2022-07-23T15:37:27;22.34;70.99
61351;DHT22;47119;49.130;9.218;2022-07-23T15:39:56;22.22;71.29
61351;DHT22;47119;49.130;9.218;2022-07-23T15:42:23;22.20;71.05
61351;DHT22;47119;49.130;9.218;2022-07-23T15:44:50;22.11;71.60
61351;DHT22;47119;49.130;9.218;2022-07-23T15:47:18;22.17;71.59
61351;DHT22;47119;49.130;9.218;2022-07-23T15:49:50;22.14;71.53
61351;DHT22;47119;49.130;9.218;2022-07-23T15:52:19;22.05;71.55
61351;DHT22;47119;49.130;9.218;2022-07-23T15:54:48;22.14;71.02
61351;DHT22;47119;49.130;9.218;2022-07-23T15:57:16;22.27;70.96
61351;DHT22;47119;49.130;9.218;2022-07-23T15:59:43;22.30;70.78
61351;DHT22;47119;49.130;9.218;2022-07-23T16:02:10;22.31;71.10
61351;DHT22;47119;49.130;9.218;2022-07-23T16:04:40;22.20;71.19
61351;DHT22;47119;49.130;9.218;2022-07-23T16:07:11;22.21;70.91
61351;DHT22;47119;49.130;9.218;2022-07-23T16:09:38;22.20;71.11
61351;DHT22;47119;49.130;9.218;2022-07-23T16:12:46;22.22;71.06
61351;DHT22;47119;49.130;9.218;2022-07-23T16:15:14;22.15;71.55
61351;DHT22;47119;49.130;9.218;2022-07-23T16:17:41;22.22;71.21
61351;DHT22;47119;49.130;9.218;2022-07-23T16:20:11;22.20;71.09
61351;DHT22;47119;49.130;9.218;2022-07-23T16:22:42;22.24;71.11
61351;DHT22;47119;49.130;9.218;2022-07-23T16:25:10;22.34;70.53
61351;DHT22;47119;49.130;9.218;2022-07-23T16:27:40;22.35;70.92
61351;DHT22;47119;49.130;9.218;2022-07-23T16:30:10;22.33;70.96
61351;DHT22;47119;49.130;9.218;2022-07-23T16:32:39;22.38;70.95
61351;DHT22;47119;49.130;9.218;2022-07-23T16:35:07;22.25;71.42
61351;DHT22;47119;49.130;9.218;2022-07-23T16:37:35;22.28;71.24
61351;DHT22;47119;49.130;9.218;2022-07-23T16:40:06;22.30;71.15
61351;DHT22;47119;49.130;9.218;2022-07-23T16:42:35;22.27;71.48
61351;DHT22;47119;49.130;9.218;2022-07-23T16:45:06;22.24;71.35
61351;DHT22;47119;49.130;9.218;2022-07-23T16:47:37;22.30;70.94
61351;DHT22;47119;49.130;9.218;2022-07-23T16:50:07;22.34;70.45
61351;DHT22;47119;49.130;9.218;2022-07-23T16:52:37;22.34;71.23
61351;DHT22;47119;49.130;9.218;2022-07-23T16:55:09;22.37;70.90
61351;DHT22;47119;49.130;9.218;2022-07-23T16:57:38;22.35;71.11
61351;DHT22;47119;49.130;9.218;2022-07-23T17:00:10;22.37;70.91
61351;DHT22;47119;49.130;9.218;2022-07-23T17:02:39;22.37;71.06
61351;DHT22;47119;49.130;9.218;2022-07-23T17:05:08;22.28;71.27
61351;DHT22;47119;49.130;9.218;2022-07-23T17:07:38;22.25;71.45
61351;DHT22;47119;49.130;9.218;2022-07-23T17:10:17;22.27;71.04
61351;DHT22;47119;49.130;9.218;2022-07-23T17:12:47;22.33;71.09
61351;DHT22;47119;49.130;9.218;2022-07-23T17:15:19;22.38;71.00
61351;DHT22;47119;49.130;9.218;2022-07-23T17:17:46;22.34;71.26
61351;DHT22;47119;49.130;9.218;2022-07-23T17:20:16;22.34;71.18
61351;DHT22;47119;49.130;9.218;2022-07-23T17:22:44;22.35;71.03
61351;DHT22;47119;49.130;9.218;2022-07-23T17:25:11;22.37;71.04
61351;DHT22;47119;49.130;9.218;2022-07-23T17:27:41;22.34;71.09
61351;DHT22;47119;49.130;9.218;2022-07-23T17:30:13;22.38;71.05
61351;DHT22;47119;49.130;9.218;2022-07-23T17:32:41;22.34;71.13
61351;DHT22;47119;49.130;9.218;2022-07-23T17:35:11;22.34;71.14
61351;DHT22;47119;49.130;9.218;2022-07-23T17:37:48;22.35;71.11
61351;DHT22;47119;49.130;9.218;2022-07-23T17:40:18;22.35;71.09
61351;DHT22;47119;49.130;9.218;2022-07-23T17:42:46;22.35;71.17
61351;DHT22;47119;49.130;9.218;2022-07-23T17:45:13;22.35;71.16
61351;DHT22;47119;49.130;9.218;2022-07-23T17:47:45;22.37;71.11
61351;DHT22;47119;49.130;9.218;2022-07-23T17:50:15;22.37;71.04
61351;DHT22;47119;49.130;9.218;2022-07-23T17:52:49;22.38;71.10
61351;DHT22;47119;49.130;9.218;2022-07-23T17:55:21;22.40;71.06
61351;DHT22;47119;49.130;9.218;2022-07-23T17:57:50;22.40;71.02
61351;DHT22;47119;49.130;9.218;2022-07-23T18:00:22;22.38;71.04
61351;DHT22;47119;49.130;9.218;2022-07-23T18:02:53;22.40;70.91
61351;DHT22;47119;49.130;9.218;2022-07-23T18:05:20;22.35;70.93
61351;DHT22;47119;49.130;9.218;2022-07-23T18:07:49;22.34;71.02
61351;DHT22;47119;49.130;9.218;2022-07-23T18:10:19;22.35;71.18
61351;DHT22;47119;49.130;9.218;2022-07-23T18:12:50;22.34;71.21
61351;DHT22;47119;49.130;9.218;2022-07-23T18:15:17;22.34;71.26
61351;DHT22;47119;49.130;9.218;2022-07-23T18:17:44;22.38;70.98
61351;DHT22;47119;49.130;9.218;2022-07-23T18:20:12;22.35;71.17
61351;DHT22;47119;49.130;9.218;2022-07-23T18:22:39;22.34;71.21
61351;DHT22;47119;49.130;9.218;2022-07-23T18:25:12;22.34;71.27
61351;DHT22;47119;49.130;9.218;2022-07-23T18:27:42;22.33;71.25
61351;DHT22;47119;49.130;9.218;2022-07-23T18:30:13;22.33;71.26
61351;DHT22;47119;49.130;9.218;2022-07-23T18:32:45;22.35;71.21
61351;DHT22;47119;49.130;9.218;2022-07-23T18:35:15;22.34;71.26
61351;DHT22;47119;49.130;9.218;2022-07-23T18:37:46;22.34;71.08
61351;DHT22;47119;49.130;9.218;2022-07-23T18:40:16;22.31;71.22
61351;DHT22;47119;49.130;9.218;2022-07-23T18:42:55;22.35;71.22
61351;DHT22;47119;49.130;9.218;2022-07-23T18:45:25;22.33;71.23
61351;DHT22;47119;49.130;9.218;2022-07-23T18:47:54;22.31;71.26
61351;DHT22;47119;49.130;9.218;2022-07-23T18:50:21;22.33;71.02
61351;DHT22;47119;49.130;9.218;2022-07-23T18:52:58;22.37;71.03
61351;DHT22;47119;49.130;9.218;2022-07-23T18:55:30;22.37;71.03
61351;DHT22;47119;49.130;9.218;2022-07-23T18:57:59;22.34;71.10
61351;DHT22;47119;49.130;9.218;2022-07-23T19:00:31;22.33;71.01
61351;DHT22;47119;49.130;9.218;2022-07-23T19:03:05;22.35;71.07
61351;DHT22;47119;49.130;9.218;2022-07-23T19:05:36;22.38;71.08
61351;DHT22;47119;49.130;9.218;2022-07-23T19:08:09;22.31;71.11
61351;DHT22;47119;49.130;9.218;2022-07-23T19:10:39;22.33;71.17
61351;DHT22;47119;49.130;9.218;2022-07-23T19:13:07;22.35;71.09
61351;DHT22;47119;49.130;9.218;2022-07-23T19:15:39;22.37;71.08
61351;DHT22;47119;49.130;9.218;2022-07-23T19:18:25;22.35;71.11
61351;DHT22;47119;49.130;9.218;2022-07-23T19:21:02;22.37;71.10
61351;DHT22;47119;49.130;9.218;2022-07-23T19:23:37;22.37;71.05
61351;DHT22;47119;49.130;9.218;2022-07-23T19:26:05;22.35;71.03
61351;DHT22;47119;49.130;9.218;2022-07-23T19:28:35;22.35;70.89
61351;DHT22;47119;49.130;9.218;2022-07-23T19:31:06;22.34;71.01
61351;DHT22;47119;49.130;9.218;2022-07-23T19:33:38;22.34;71.00
61351;DHT22;47119;49.130;9.218;2022-07-23T19:36:13;22.35;70.98
61351;DHT22;47119;49.130;9.218;2022-07-23T19:38:41;22.34;70.95
61351;DHT22;47119;49.130;9.218;2022-07-23T19:41:11;22.31;70.91
61351;DHT22;47119;49.130;9.218;2022-07-23T19:43:41;22.31;70.93
61351;DHT22;47119;49.130;9.218;2022-07-23T19:46:12;22.33;70.96
61351;DHT22;47119;49.130;9.218;2022-07-23T19:48:44;22.31;70.97
61351;DHT22;47119;49.130;9.218;2022-07-23T19:51:11;22.33;70.98
61351;DHT22;47119;49.130;9.218;2022-07-23T19:53:38;22.33;71.00
61351;DHT22;47119;49.130;9.218;2022-07-23T19:56:08;22.33;71.01
61351;DHT22;47119;49.130;9.218;2022-07-23T19:58:55;22.33;70.99
61351;DHT22;47119;49.130;9.218;2022-07-23T20:05:29;22.31;71.09
61351;DHT22;47119;49.130;9.218;2022-07-23T20:08:15;22.35;71.11